KHKA

Blytheville Municipal Airport

Blytheville, Arkansas, USA
METAR KHKA 191953Z AUTO 23007KT 10SM OVC055 19/07 A3014 RMK AO2 SLP206 T01940067 $
Observed Flight Rules
Oct-19 @ 19:53 UTC (an hour ago) Visual Flight Rules
Wind Visibility Clouds
230° at 7 knots 10 miles
  • Overcast at 5,500' AGL
Temperatures Readings
Current 19°C / 66°F
Dewpoint 7°C / 45°F
Humidity 46%
Altimeter 30.14" Hg
Pressure 1020.6 hPa
Elevation 78
METAR KHKA 191953Z AUTO 23007KT 10SM OVC055 19/07 A3014 RMK AO2 SLP206 T01940067 $
Observed Flight Rules
Oct-19 @ 19:53 UTC
(an hour ago)
VFR
Wind Visibility
230° at 7 knots 10 miles
Clouds
  • Overcast at 5,500' AGL
Temperature Dewpoint
19°C / 66°F 7°C / 45°F
Humidity Altimeter Pressure
46% 30.14" Hg 1020.6 hPa